createdAt,value
2022-07-29T00:02:29.444Z,16.62
2022-07-29T00:04:56.301Z,16.58
2022-07-29T00:07:23.152Z,16.54
2022-07-29T00:09:51.097Z,16.49
2022-07-29T00:12:25.320Z,16.48
2022-07-29T00:14:54.450Z,16.47
2022-07-29T00:17:21.298Z,16.43
2022-07-29T00:19:48.144Z,16.44
2022-07-29T00:22:15.109Z,16.42
2022-07-29T00:24:42.008Z,16.38
2022-07-29T00:27:08.869Z,16.37
2022-07-29T00:29:35.789Z,16.37
2022-07-29T00:32:03.597Z,16.36
2022-07-29T00:34:49.075Z,16.29
2022-07-29T00:37:15.933Z,16.28
2022-07-29T00:39:42.787Z,16.23
2022-07-29T00:42:10.730Z,16.18
2022-07-29T00:44:42.384Z,16.22
2022-07-29T00:47:10.645Z,16.23
2022-07-29T00:49:39.467Z,16.23
2022-07-29T00:52:07.022Z,16.23
2022-07-29T00:54:35.325Z,16.17
2022-07-29T00:57:08.912Z,16.13
2022-07-29T00:59:36.282Z,16.11
2022-07-29T01:02:04.612Z,16.10
2022-07-29T01:04:32.301Z,16.06
2022-07-29T01:07:01.729Z,16.05
2022-07-29T01:09:42.825Z,16.01
2022-07-29T01:12:19.491Z,15.96
2022-07-29T01:14:48.816Z,15.96
2022-07-29T01:17:27.160Z,15.99
2022-07-29T01:20:02.696Z,15.96
2022-07-29T01:22:36.371Z,15.94
2022-07-29T01:25:40.205Z,15.88
2022-07-29T01:28:33.189Z,15.86
2022-07-29T01:31:03.773Z,15.82
2022-07-29T01:33:50.306Z,15.82
2022-07-29T01:36:28.519Z,15.79
2022-07-29T01:39:07.276Z,15.79
2022-07-29T01:41:37.312Z,15.75
2022-07-29T01:44:18.791Z,15.71
2022-07-29T01:46:53.590Z,15.68
2022-07-29T01:49:28.375Z,15.66
2022-07-29T01:52:06.881Z,15.63
2022-07-29T01:54:40.346Z,15.63
2022-07-29T01:57:13.867Z,15.55
2022-07-29T01:59:42.821Z,15.56
2022-07-29T02:02:13.824Z,15.46
2022-07-29T02:04:42.870Z,15.45
2022-07-29T02:07:14.218Z,15.40
2022-07-29T02:09:42.978Z,15.40
2022-07-29T02:12:11.933Z,15.41
2022-07-29T02:14:44.988Z,15.40
2022-07-29T02:17:13.395Z,15.37
2022-07-29T02:19:42.104Z,15.32
2022-07-29T02:22:12.414Z,15.27
2022-07-29T02:24:41.519Z,15.23
2022-07-29T02:27:09.543Z,15.23
2022-07-29T02:29:38.341Z,15.18
2022-07-29T02:32:06.803Z,15.16
2022-07-29T02:34:35.359Z,15.15
2022-07-29T02:37:03.731Z,15.10
2022-07-29T02:39:31.281Z,15.09
2022-07-29T02:42:06.914Z,15.12
2022-07-29T02:44:37.047Z,15.10
2022-07-29T02:47:42.888Z,15.10
2022-07-29T02:50:16.626Z,15.08
2022-07-29T02:52:53.535Z,15.07
2022-07-29T02:55:30.961Z,15.08
2022-07-29T02:58:23.684Z,15.05
2022-07-29T03:00:52.844Z,15.09
2022-07-29T03:03:21.235Z,15.05
2022-07-29T03:05:48.181Z,15.06
2022-07-29T03:08:17.058Z,15.04
2022-07-29T03:10:48.301Z,15.03
2022-07-29T03:13:16.836Z,15.03
2022-07-29T03:15:45.924Z,15.03
2022-07-29T03:18:13.751Z,15.06
2022-07-29T03:20:41.617Z,15.08
2022-07-29T03:23:09.708Z,15.04
2022-07-29T03:25:36.962Z,15.06
2022-07-29T03:28:04.216Z,15.09
2022-07-29T03:30:31.842Z,15.04
2022-07-29T03:32:59.135Z,15.05
2022-07-29T03:35:26.075Z,15.03
2022-07-29T03:37:52.937Z,15.01
2022-07-29T03:40:28.703Z,14.99
2022-07-29T03:42:56.937Z,14.98
2022-07-29T03:45:26.004Z,14.98
2022-07-29T03:48:01.250Z,15.02
2022-07-29T03:50:29.968Z,14.98
2022-07-29T03:52:56.944Z,14.98
2022-07-29T03:55:24.574Z,14.97
2022-07-29T03:57:52.416Z,14.98
2022-07-29T04:00:20.585Z,14.93
2022-07-29T04:02:49.765Z,14.94
2022-07-29T04:05:17.467Z,14.97
2022-07-29T04:07:49.164Z,14.95
2022-07-29T04:10:18.033Z,14.97
2022-07-29T04:12:57.596Z,14.97
2022-07-29T04:15:24.467Z,14.96
2022-07-29T04:17:51.271Z,14.91
2022-07-29T04:20:18.458Z,14.90
2022-07-29T04:22:45.270Z,14.95
2022-07-29T04:25:12.167Z,14.93
2022-07-29T04:27:58.940Z,14.91
2022-07-29T04:30:25.965Z,14.93
2022-07-29T04:32:53.139Z,14.90
2022-07-29T04:35:20.903Z,14.89
2022-07-29T04:37:47.768Z,14.89
2022-07-29T04:40:14.718Z,14.90
2022-07-29T04:42:46.462Z,14.92
2022-07-29T04:45:14.636Z,14.96
2022-07-29T04:47:42.074Z,14.95
2022-07-29T04:50:10.393Z,14.93
2022-07-29T04:52:37.797Z,14.90
2022-07-29T04:55:06.146Z,14.92
2022-07-29T04:57:33.449Z,14.90
2022-07-29T05:00:00.273Z,14.91
2022-07-29T05:02:27.197Z,14.93
2022-07-29T05:04:54.135Z,14.90
2022-07-29T05:07:20.978Z,14.90
2022-07-29T05:09:48.304Z,14.87
2022-07-29T05:12:15.277Z,14.88
2022-07-29T05:14:42.131Z,14.89
2022-07-29T05:17:09.171Z,14.91
2022-07-29T05:19:39.573Z,14.89
2022-07-29T05:22:06.664Z,14.90
2022-07-29T05:24:33.487Z,14.89
2022-07-29T05:27:00.320Z,14.87
2022-07-29T05:29:44.993Z,14.87
2022-07-29T05:32:13.326Z,14.85
2022-07-29T05:34:50.712Z,14.85
2022-07-29T05:37:19.574Z,14.87
2022-07-29T05:39:47.159Z,14.91
2022-07-29T05:42:16.038Z,14.93
2022-07-29T05:44:42.912Z,14.97
2022-07-29T05:47:09.802Z,14.99
2022-07-29T05:49:36.666Z,14.99
2022-07-29T05:52:04.078Z,14.98
2022-07-29T05:54:31.009Z,15.00
2022-07-29T05:56:58.026Z,15.07
2022-07-29T05:59:29.852Z,15.07
2022-07-29T06:01:58.317Z,15.12
2022-07-29T06:04:25.503Z,15.16
2022-07-29T06:06:52.387Z,15.22
2022-07-29T06:09:19.255Z,15.27
2022-07-29T06:11:47.977Z,15.33
2022-07-29T06:14:15.159Z,15.37
2022-07-29T06:16:42.719Z,15.37
2022-07-29T06:19:10.132Z,15.44
2022-07-29T06:21:38.670Z,15.44
2022-07-29T06:24:09.410Z,15.50
2022-07-29T06:26:39.596Z,15.56
2022-07-29T06:29:07.950Z,15.59
2022-07-29T06:31:35.005Z,15.66
2022-07-29T06:34:01.856Z,15.65
2022-07-29T06:36:30.496Z,15.75
2022-07-29T06:38:57.509Z,15.81
2022-07-29T06:41:24.910Z,15.90
2022-07-29T06:43:55.218Z,15.95
2022-07-29T06:46:23.202Z,16.01
2022-07-29T06:48:50.599Z,16.04
2022-07-29T06:51:22.407Z,16.10
2022-07-29T06:53:59.869Z,16.13
2022-07-29T06:56:31.796Z,16.07
2022-07-29T06:58:58.854Z,16.12
2022-07-29T07:01:25.832Z,16.15
2022-07-29T07:03:52.695Z,16.20
2022-07-29T07:06:19.514Z,16.25
2022-07-29T07:08:46.357Z,16.29
2022-07-29T07:11:13.169Z,16.45
2022-07-29T07:13:39.997Z,16.70
2022-07-29T07:16:10.587Z,16.96
2022-07-29T07:18:37.497Z,17.18
2022-07-29T07:21:06.100Z,17.44
2022-07-29T07:23:32.929Z,17.67
2022-07-29T07:25:59.822Z,17.88
2022-07-29T07:28:26.888Z,18.02
2022-07-29T07:30:53.751Z,18.23
2022-07-29T07:33:20.849Z,18.31
2022-07-29T07:35:48.447Z,18.50
2022-07-29T07:38:15.340Z,18.43
2022-07-29T07:40:42.786Z,18.57
2022-07-29T07:43:09.626Z,18.75
2022-07-29T07:45:38.545Z,18.95
2022-07-29T07:48:06.107Z,18.96
2022-07-29T07:50:33.524Z,18.97
2022-07-29T07:53:00.704Z,18.77
2022-07-29T07:55:28.401Z,18.66
2022-07-29T07:57:55.830Z,18.62
2022-07-29T08:00:23.819Z,18.57
2022-07-29T08:02:51.610Z,18.57
2022-07-29T08:05:19.409Z,18.67
2022-07-29T08:07:47.927Z,18.69
2022-07-29T08:10:36.781Z,18.77
2022-07-29T08:13:11.992Z,18.64
2022-07-29T08:15:41.836Z,18.71
2022-07-29T08:18:09.073Z,18.77
2022-07-29T08:20:37.218Z,19.04
2022-07-29T08:23:05.531Z,19.30
2022-07-29T08:25:32.742Z,19.49
2022-07-29T08:28:01.492Z,19.60
2022-07-29T08:30:28.645Z,19.67
2022-07-29T08:32:56.005Z,19.72
2022-07-29T08:35:24.326Z,19.71
2022-07-29T08:37:53.486Z,19.75
2022-07-29T08:40:30.479Z,19.72
2022-07-29T08:42:59.091Z,19.75
2022-07-29T08:45:26.447Z,19.76
2022-07-29T08:47:54.567Z,19.76
2022-07-29T08:50:21.386Z,19.84
2022-07-29T08:52:50.556Z,19.86
2022-07-29T08:55:21.499Z,19.81
2022-07-29T08:57:54.114Z,19.68
2022-07-29T09:00:26.356Z,19.66
2022-07-29T09:02:59.053Z,19.77
2022-07-29T09:05:27.669Z,19.85
2022-07-29T09:07:55.015Z,19.97
2022-07-29T09:10:23.777Z,20.14
2022-07-29T09:12:51.069Z,20.32
2022-07-29T09:15:19.008Z,20.40
2022-07-29T09:17:50.402Z,20.52
2022-07-29T09:20:19.726Z,20.58
2022-07-29T09:22:51.920Z,20.66
2022-07-29T09:25:34.644Z,20.54
2022-07-29T09:28:08.933Z,20.64
2022-07-29T09:30:36.684Z,20.63
2022-07-29T09:33:04.824Z,20.66
2022-07-29T09:35:32.205Z,20.76
2022-07-29T09:38:10.595Z,20.84
2022-07-29T09:40:37.440Z,20.87
2022-07-29T09:43:14.521Z,20.90
2022-07-29T09:45:41.825Z,20.77
2022-07-29T09:48:20.521Z,20.74
2022-07-29T09:50:50.630Z,20.65
2022-07-29T09:53:38.544Z,20.63
2022-07-29T09:56:06.092Z,20.76
2022-07-29T09:58:35.946Z,20.88
2022-07-29T10:01:03.437Z,20.98
2022-07-29T10:03:30.467Z,21.01
2022-07-29T10:06:11.643Z,21.05
2022-07-29T10:08:39.325Z,21.25
2022-07-29T10:11:17.900Z,21.36
2022-07-29T10:13:47.708Z,21.44
2022-07-29T10:16:16.624Z,21.61
2022-07-29T10:18:44.889Z,21.66
2022-07-29T10:21:22.577Z,21.74
2022-07-29T10:24:01.315Z,21.74
2022-07-29T10:26:30.182Z,21.67
2022-07-29T10:28:57.807Z,21.53
2022-07-29T10:31:36.064Z,21.56
2022-07-29T10:34:23.300Z,21.64
2022-07-29T10:37:03.397Z,21.63
2022-07-29T10:40:31.169Z,21.76
2022-07-29T10:43:11.123Z,21.90
2022-07-29T10:45:42.750Z,22.03
2022-07-29T10:48:10.528Z,22.17
2022-07-29T10:50:57.884Z,22.23
2022-07-29T10:53:25.504Z,22.14
2022-07-29T10:55:54.053Z,22.21
2022-07-29T10:58:25.123Z,22.09
2022-07-29T11:00:53.772Z,22.11
2022-07-29T11:07:11.704Z,22.35
2022-07-29T11:09:39.698Z,22.21
2022-07-29T11:12:45.172Z,22.13
2022-07-29T11:15:18.415Z,22.19
2022-07-29T11:17:59.469Z,22.40
2022-07-29T11:20:50.137Z,22.61
2022-07-29T11:23:33.753Z,22.78
2022-07-29T11:26:28.294Z,22.93
2022-07-29T11:28:58.861Z,23.04
2022-07-29T11:31:43.922Z,23.02
2022-07-29T11:34:21.075Z,22.94
2022-07-29T11:37:07.757Z,22.98
2022-07-29T11:39:36.815Z,22.96
2022-07-29T11:42:28.210Z,22.90
2022-07-29T11:48:05.288Z,23.03
2022-07-29T11:50:46.276Z,23.01
2022-07-29T11:53:16.083Z,23.14
2022-07-29T11:58:31.784Z,23.49
2022-07-29T12:01:04.572Z,23.55
2022-07-29T12:03:33.562Z,23.50
2022-07-29T12:06:08.056Z,23.63
2022-07-29T12:08:42.049Z,23.72
2022-07-29T12:11:17.491Z,23.71
2022-07-29T12:13:47.515Z,23.67
2022-07-29T12:16:16.337Z,23.68
2022-07-29T12:19:04.165Z,23.74
2022-07-29T12:21:57.023Z,24.04
2022-07-29T12:24:27.397Z,23.98
2022-07-29T12:26:57.019Z,23.94
2022-07-29T12:29:34.892Z,23.97
2022-07-29T12:32:06.428Z,24.16
2022-07-29T12:34:41.985Z,24.27
2022-07-29T12:37:11.243Z,24.26
2022-07-29T12:39:38.324Z,24.20
2022-07-29T12:42:18.526Z,24.02
2022-07-29T12:44:52.586Z,23.81
2022-07-29T12:47:20.677Z,23.53
2022-07-29T12:49:48.956Z,23.39
2022-07-29T12:52:26.026Z,23.44
2022-07-29T12:54:52.887Z,23.48
2022-07-29T12:57:20.372Z,23.48
2022-07-29T13:00:08.894Z,23.40
2022-07-29T13:02:37.505Z,23.41
2022-07-29T13:05:06.031Z,23.37
2022-07-29T13:07:53.979Z,23.36
2022-07-29T13:10:23.904Z,23.34
2022-07-29T13:13:10.438Z,23.03
2022-07-29T13:15:39.391Z,23.00
2022-07-29T13:18:26.732Z,23.08
2022-07-29T13:20:53.593Z,23.23
2022-07-29T13:23:20.404Z,23.22
2022-07-29T13:25:47.250Z,23.28
2022-07-29T13:28:14.254Z,23.00
2022-07-29T13:30:44.434Z,22.97
2022-07-29T13:33:11.954Z,23.06
2022-07-29T13:35:40.042Z,22.88
2022-07-29T13:38:07.141Z,22.96
2022-07-29T13:40:36.373Z,22.99
2022-07-29T13:43:03.323Z,22.96
2022-07-29T13:45:30.948Z,23.01
2022-07-29T13:47:57.769Z,22.99
2022-07-29T13:50:24.811Z,22.95
2022-07-29T13:52:52.287Z,22.99
2022-07-29T13:55:19.639Z,22.96
2022-07-29T13:57:46.535Z,22.91
2022-07-29T14:00:14.484Z,22.90
2022-07-29T14:02:41.394Z,22.82
2022-07-29T14:05:10.834Z,22.68
2022-07-29T14:07:40.110Z,22.65
2022-07-29T14:10:07.616Z,22.58
2022-07-29T14:12:34.566Z,22.59
2022-07-29T14:15:01.827Z,22.59
2022-07-29T14:17:28.664Z,22.60
2022-07-29T14:19:55.516Z,22.68
2022-07-29T14:22:23.089Z,22.78
2022-07-29T14:24:52.461Z,22.92
2022-07-29T14:27:19.524Z,23.03
2022-07-29T14:30:04.426Z,23.13
2022-07-29T14:33:02.033Z,23.22
2022-07-29T14:35:29.112Z,23.33
2022-07-29T14:37:56.029Z,23.35
2022-07-29T14:40:22.928Z,23.35
2022-07-29T14:42:50.249Z,23.29
2022-07-29T14:45:17.067Z,23.37
2022-07-29T14:47:43.998Z,23.36
2022-07-29T14:50:11.373Z,23.34
2022-07-29T14:52:38.258Z,23.34
2022-07-29T14:55:06.041Z,23.35
2022-07-29T14:57:47.108Z,23.28
2022-07-29T15:00:14.238Z,23.20
2022-07-29T15:03:00.805Z,23.29
2022-07-29T15:05:28.459Z,23.34
2022-07-29T15:07:55.436Z,23.40
2022-07-29T15:10:22.378Z,23.40
2022-07-29T15:12:51.671Z,23.45
2022-07-29T15:15:18.694Z,23.53
2022-07-29T15:17:46.735Z,23.56
2022-07-29T15:20:13.741Z,23.57
2022-07-29T15:22:42.369Z,23.49
2022-07-29T15:25:11.412Z,23.45
2022-07-29T15:27:38.294Z,23.38
2022-07-29T15:30:05.700Z,23.32
2022-07-29T15:32:32.512Z,23.30
2022-07-29T15:34:59.533Z,23.27
2022-07-29T15:37:26.771Z,23.26
2022-07-29T15:39:58.289Z,23.23
2022-07-29T15:42:26.755Z,23.28
2022-07-29T15:44:54.418Z,23.27
2022-07-29T15:47:21.292Z,23.26
2022-07-29T15:49:49.479Z,23.26
2022-07-29T15:52:25.837Z,23.26
2022-07-29T15:54:55.292Z,23.25
2022-07-29T15:57:22.326Z,23.24
2022-07-29T15:59:49.164Z,23.19
2022-07-29T16:02:15.994Z,23.20
2022-07-29T16:04:42.798Z,23.21
2022-07-29T16:07:10.054Z,23.26
2022-07-29T16:09:36.885Z,23.27
2022-07-29T16:12:10.563Z,23.31
2022-07-29T16:14:43.806Z,23.35
2022-07-29T16:17:14.592Z,23.40
2022-07-29T16:19:43.190Z,23.44
2022-07-29T16:22:10.311Z,23.42
2022-07-29T16:24:37.261Z,23.40
2022-07-29T16:27:04.414Z,23.40
2022-07-29T16:29:31.361Z,23.41
2022-07-29T16:31:58.272Z,23.44
2022-07-29T16:34:25.117Z,23.43
2022-07-29T16:36:51.976Z,23.45
2022-07-29T16:39:18.775Z,23.45
2022-07-29T16:41:45.667Z,23.48
2022-07-29T16:44:12.560Z,23.55
2022-07-29T16:46:40.866Z,23.63
2022-07-29T16:49:08.583Z,23.67
2022-07-29T16:51:35.517Z,23.75
2022-07-29T16:54:02.536Z,23.79
2022-07-29T16:56:29.458Z,23.85
2022-07-29T16:58:58.154Z,23.76
2022-07-29T17:01:25.111Z,23.76
2022-07-29T17:04:07.017Z,23.79
2022-07-29T17:06:37.963Z,23.81
2022-07-29T17:09:09.921Z,23.85
2022-07-29T17:11:52.781Z,23.86
2022-07-29T17:14:25.260Z,23.82
2022-07-29T17:17:00.908Z,23.89
2022-07-29T17:19:32.744Z,23.84
2022-07-29T17:22:09.452Z,23.86
2022-07-29T17:24:38.936Z,23.82
2022-07-29T17:27:07.198Z,23.72
2022-07-29T17:29:35.143Z,23.72
2022-07-29T17:32:02.199Z,23.70
2022-07-29T17:34:29.074Z,23.65
2022-07-29T17:36:56.846Z,23.57
2022-07-29T17:39:24.130Z,23.54
2022-07-29T17:41:50.952Z,23.49
2022-07-29T17:44:17.757Z,23.45
2022-07-29T17:46:44.862Z,23.43
2022-07-29T17:49:11.898Z,23.39
2022-07-29T17:51:38.871Z,23.34
2022-07-29T17:54:05.789Z,23.25
2022-07-29T17:56:32.707Z,23.26
2022-07-29T17:59:01.620Z,23.14
2022-07-29T18:01:29.163Z,23.11
2022-07-29T18:03:59.825Z,23.04
2022-07-29T18:06:27.212Z,22.99
2022-07-29T18:08:54.204Z,22.91
2022-07-29T18:11:22.033Z,22.88
2022-07-29T18:13:49.081Z,22.85
2022-07-29T18:16:16.020Z,22.83
2022-07-29T18:18:44.315Z,22.82
2022-07-29T18:21:12.020Z,22.77
2022-07-29T18:23:38.865Z,22.75
2022-07-29T18:26:05.702Z,22.71
2022-07-29T18:28:32.953Z,22.65
2022-07-29T18:31:00.706Z,22.62
2022-07-29T18:33:30.446Z,22.51
2022-07-29T18:36:06.114Z,22.48
2022-07-29T18:38:42.388Z,22.40
2022-07-29T18:41:09.599Z,22.36
2022-07-29T18:43:36.494Z,22.29
2022-07-29T18:46:05.494Z,22.24
2022-07-29T18:48:33.565Z,22.18
2022-07-29T18:51:01.178Z,22.17
2022-07-29T18:53:28.214Z,22.10
2022-07-29T18:56:00.156Z,22.04
2022-07-29T18:58:27.383Z,21.98
2022-07-29T19:00:54.238Z,21.91
2022-07-29T19:03:21.214Z,21.87
2022-07-29T19:05:51.654Z,21.79
2022-07-29T19:08:18.508Z,21.72
2022-07-29T19:10:45.814Z,21.66
2022-07-29T19:13:13.640Z,21.59
2022-07-29T19:15:40.993Z,21.52
2022-07-29T19:18:07.877Z,21.44
2022-07-29T19:20:34.778Z,21.39
2022-07-29T19:23:01.591Z,21.34
2022-07-29T19:25:28.793Z,21.31
2022-07-29T19:27:59.221Z,21.20
2022-07-29T19:30:26.161Z,21.11
2022-07-29T19:32:52.997Z,21.06
2022-07-29T19:35:28.563Z,21.02
2022-07-29T19:37:56.645Z,20.94
2022-07-29T19:40:23.783Z,20.91
2022-07-29T19:42:51.799Z,20.84
2022-07-29T19:45:22.382Z,20.77
2022-07-29T19:47:49.764Z,20.70
2022-07-29T19:50:17.337Z,20.63
2022-07-29T19:52:47.256Z,20.61
2022-07-29T19:55:15.173Z,20.53
2022-07-29T19:57:42.100Z,20.36
2022-07-29T20:00:12.072Z,20.24
2022-07-29T20:02:40.348Z,20.15
2022-07-29T20:05:09.589Z,20.07
2022-07-29T20:07:37.621Z,19.92
2022-07-29T20:10:05.372Z,19.74
2022-07-29T20:12:32.260Z,19.61
2022-07-29T20:14:59.427Z,19.50
2022-07-29T20:17:27.804Z,19.41
2022-07-29T20:19:56.377Z,19.33
2022-07-29T20:22:24.440Z,19.29
2022-07-29T20:24:51.898Z,19.15
2022-07-29T20:27:19.256Z,19.03
2022-07-29T20:29:46.396Z,18.92
2022-07-29T20:32:13.503Z,18.80
2022-07-29T20:34:44.588Z,18.67
2022-07-29T20:37:13.494Z,18.55
2022-07-29T20:39:42.783Z,18.43
2022-07-29T20:42:09.701Z,18.38
2022-07-29T20:44:36.971Z,18.30
2022-07-29T20:47:03.859Z,18.19
2022-07-29T20:49:31.727Z,18.12
2022-07-29T20:51:58.633Z,18.03
2022-07-29T20:54:26.918Z,17.93
2022-07-29T20:56:53.860Z,17.88
2022-07-29T20:59:21.376Z,17.80
2022-07-29T21:01:48.744Z,17.72
2022-07-29T21:04:16.769Z,17.65
2022-07-29T21:06:44.228Z,17.61
2022-07-29T21:09:11.507Z,17.63
2022-07-29T21:11:43.633Z,17.62
2022-07-29T21:14:38.553Z,17.63
2022-07-29T21:17:07.356Z,17.61
2022-07-29T21:19:35.139Z,17.63
2022-07-29T21:22:02.257Z,17.64
2022-07-29T21:24:29.301Z,17.65
2022-07-29T21:27:20.700Z,17.65
2022-07-29T21:29:48.457Z,17.64
2022-07-29T21:32:27.613Z,17.62
2022-07-29T21:34:57.997Z,17.60
2022-07-29T21:37:25.426Z,17.60
2022-07-29T21:39:52.300Z,17.58
2022-07-29T21:42:19.391Z,17.52
2022-07-29T21:44:46.255Z,17.45
2022-07-29T21:47:13.163Z,17.39
2022-07-29T21:49:40.013Z,17.35
2022-07-29T21:52:07.906Z,17.28
2022-07-29T21:54:35.272Z,17.22
2022-07-29T21:57:02.427Z,17.17
2022-07-29T21:59:29.831Z,17.13
2022-07-29T22:02:00.875Z,17.08
2022-07-29T22:04:29.278Z,17.07
2022-07-29T22:06:57.177Z,17.04
2022-07-29T22:09:25.107Z,17.02
2022-07-29T22:11:51.946Z,16.99
2022-07-29T22:14:18.867Z,16.97
2022-07-29T22:16:46.632Z,16.93
2022-07-29T22:19:14.539Z,16.93
2022-07-29T22:21:42.088Z,16.93
2022-07-29T22:24:10.405Z,16.86
2022-07-29T22:26:38.326Z,16.79
2022-07-29T22:29:05.547Z,16.80
2022-07-29T22:31:32.425Z,16.76
2022-07-29T22:33:59.414Z,16.80
2022-07-29T22:36:27.057Z,16.78
2022-07-29T22:38:53.858Z,16.79
2022-07-29T22:41:20.681Z,16.82
2022-07-29T22:43:47.512Z,16.80
2022-07-29T22:46:14.376Z,16.80
2022-07-29T22:48:41.300Z,16.80
2022-07-29T22:51:08.324Z,16.78
2022-07-29T22:53:36.066Z,16.74
2022-07-29T22:56:03.087Z,16.69
2022-07-29T22:58:29.909Z,16.67
2022-07-29T23:00:56.860Z,16.65
2022-07-29T23:03:24.018Z,16.61
2022-07-29T23:05:51.974Z,16.56
2022-07-29T23:08:19.416Z,16.52
2022-07-29T23:10:46.742Z,16.52
2022-07-29T23:13:13.977Z,16.51
2022-07-29T23:15:41.738Z,16.47
2022-07-29T23:18:08.759Z,16.47
2022-07-29T23:20:36.390Z,16.46
2022-07-29T23:23:03.353Z,16.46
2022-07-29T23:25:30.385Z,16.42
2022-07-29T23:27:57.311Z,16.39
2022-07-29T23:30:24.546Z,16.38
2022-07-29T23:32:51.464Z,16.36
2022-07-29T23:35:18.508Z,16.35
2022-07-29T23:37:45.382Z,16.36
2022-07-29T23:40:14.687Z,16.33
2022-07-29T23:42:42.770Z,16.32
2022-07-29T23:45:11.580Z,16.31
2022-07-29T23:47:38.777Z,16.29
2022-07-29T23:50:07.095Z,16.26
2022-07-29T23:52:34.000Z,16.23
2022-07-29T23:55:36.480Z,16.19
2022-07-29T23:57:50.404Z,16.15
